Time;durP1;ratioP1;P1;durP2;ratioP2;P2;SDS_P1;SDS_P2;PMS_P1;PMS_P2;Temp;Humidity;BMP_temperature;BMP_pressure;BME280_temperature;BME280_humidity;BME280_pressure;Samples;Min_cycle;Max_cycle;Signal;HPM_P1;HPM_P2
2021/05/17 00:01:33;;;;;;;17.73;15.43;;;23.00;53.90;;;;;;4309060;61;21565;-25
2021/05/17 00:06:34;;;;;;;17.50;15.13;;;23.00;53.90;;;;;;4324639;61;21043;-22
2021/05/17 00:11:35;;;;;;;18.10;15.68;;;23.00;53.90;;;;;;4317849;61;21107;-26
2021/05/17 00:16:37;;;;;;;19.00;15.82;;;23.00;53.90;;;;;;4303475;65;21618;-26
2021/05/17 00:21:38;;;;;;;18.00;15.60;;;23.00;53.90;;;;;;4355975;61;21071;-25
2021/05/17 00:26:39;;;;;;;15.82;14.15;;;23.00;53.90;;;;;;4302758;61;21654;-26
2021/05/17 00:31:43;;;;;;;17.40;15.52;;;23.00;53.90;;;;;;4328894;61;21071;-24
2021/05/17 00:36:44;;;;;;;15.55;13.88;;;23.00;53.90;;;;;;4334626;61;21112;-26
2021/05/17 00:41:45;;;;;;;17.05;14.43;;;23.00;53.90;;;;;;4344290;61;21127;-25
2021/05/17 00:46:46;;;;;;;17.90;16.00;;;23.00;53.80;;;;;;4337179;61;21035;-26
2021/05/17 00:51:48;;;;;;;17.37;14.80;;;23.00;53.80;;;;;;4307868;61;21182;-26
2021/05/17 00:56:49;;;;;;;16.50;12.95;;;23.00;53.80;;;;;;4304472;60;21065;-27
2021/05/17 01:01:50;;;;;;;16.52;14.38;;;23.00;53.80;;;;;;4308990;61;21041;-26
2021/05/17 01:06:52;;;;;;;16.08;14.38;;;23.00;53.80;;;;;;4319084;61;21055;-26
2021/05/17 01:11:57;;;;;;;16.17;14.35;;;23.00;53.80;;;;;;4341541;61;21075;-21
2021/05/17 01:17:01;;;;;;;16.33;14.35;;;23.00;53.80;;;;;;4336798;61;21643;-22
2021/05/17 01:22:12;;;;;;;15.05;13.45;;;23.00;53.80;;;;;;4323513;61;21090;-26
2021/05/17 01:27:14;;;;;;;16.85;14.13;;;23.00;53.80;;;;;;4322053;61;21573;-27
2021/05/17 01:32:15;;;;;;;18.48;14.70;;;23.00;53.80;;;;;;4302796;65;21079;-22
2021/05/17 01:37:16;;;;;;;15.48;13.68;;;23.00;53.80;;;;;;4335939;61;21550;-23
2021/05/17 01:42:20;;;;;;;14.98;13.27;;;23.00;53.80;;;;;;4321464;61;21625;-24
2021/05/17 01:47:23;;;;;;;15.00;13.40;;;23.00;53.80;;;;;;4338388;60;21131;-26
2021/05/17 01:52:26;;;;;;;14.00;12.50;;;23.00;53.80;;;;;;4329354;61;21709;-20
2021/05/17 01:57:26;;;;;;;14.25;12.75;;;23.00;53.80;;;;;;4320514;61;21633;-21
2021/05/17 02:02:28;;;;;;;14.18;12.68;;;23.00;53.80;;;;;;4374875;61;21098;-23
2021/05/17 02:07:29;;;;;;;14.63;13.13;;;23.00;53.80;;;;;;4305806;61;21047;-25
2021/05/17 02:12:33;;;;;;;14.85;13.00;;;23.00;53.80;;;;;;4302776;65;21191;-25
2021/05/17 02:17:35;;;;;;;14.57;13.00;;;23.00;53.80;;;;;;4309814;61;21067;-27
2021/05/17 02:22:37;;;;;;;14.10;12.30;;;23.00;53.80;;;;;;4321368;61;21099;-25
2021/05/17 02:27:42;;;;;;;13.30;11.90;;;23.00;53.80;;;;;;4318160;61;21120;-27
2021/05/17 02:32:43;;;;;;;13.62;11.93;;;23.00;53.80;;;;;;4304008;61;21139;-25
2021/05/17 02:37:49;;;;;;;14.45;12.55;;;23.00;53.80;;;;;;4335493;61;21063;-21
2021/05/17 02:42:56;;;;;;;14.38;12.50;;;23.00;53.80;;;;;;4316673;61;21743;-26
2021/05/17 02:48:02;;;;;;;14.70;12.80;;;23.00;53.80;;;;;;4303130;61;21155;-23
2021/05/17 02:53:45;;;;;;;13.07;11.68;;;23.00;53.80;;;;;;4302901;65;21150;-25
2021/05/17 02:58:46;;;;;;;12.57;11.27;;;23.00;53.80;;;;;;4310946;61;21582;-25
2021/05/17 03:03:51;;;;;;;12.30;10.95;;;23.00;53.80;;;;;;4314777;61;21079;-24
2021/05/17 03:08:59;;;;;;;11.70;10.20;;;23.00;53.80;;;;;;4320994;61;21174;-26
2021/05/17 03:14:03;;;;;;;11.55;10.35;;;23.00;53.80;;;;;;4341431;61;21098;-26
2021/05/17 03:19:06;;;;;;;12.82;11.48;;;23.00;53.80;;;;;;4315205;61;21067;-23
2021/05/17 03:24:09;;;;;;;11.80;9.90;;;23.00;53.80;;;;;;4320642;61;21128;-25
2021/05/17 03:29:12;;;;;;;11.80;10.55;;;23.00;53.80;;;;;;4308226;60;21071;-26
2021/05/17 03:34:13;;;;;;;12.20;10.85;;;23.00;53.80;;;;;;4305842;61;21729;-26
2021/05/17 03:39:14;;;;;;;12.25;10.95;;;23.00;54.50;;;;;;4337041;61;21091;-26
2021/05/17 03:44:15;;;;;;;12.80;11.18;;;23.00;53.80;;;;;;4313862;60;21668;-25
2021/05/17 03:49:16;;;;;;;11.00;9.68;;;23.00;53.80;;;;;;4307343;61;21087;-26
2021/05/17 03:54:18;;;;;;;12.30;10.88;;;23.00;53.80;;;;;;4302059;65;21140;-26
2021/05/17 03:59:19;;;;;;;12.93;10.20;;;23.00;53.80;;;;;;4327347;61;21530;-22
2021/05/17 04:04:22;;;;;;;11.43;10.23;;;23.00;53.90;;;;;;4303250;61;21163;-27
2021/05/17 04:14:42;;;;;;;10.35;9.32;;;23.00;53.80;;;;;;4302524;61;21175;-24
2021/05/17 04:19:42;;;;;;;11.75;10.05;;;23.00;53.80;;;;;;4309309;61;21071;-22
2021/05/17 04:24:43;;;;;;;11.12;8.82;;;23.00;53.80;;;;;;4302858;65;21557;-21
2021/05/17 04:29:47;;;;;;;10.63;9.52;;;23.00;53.80;;;;;;4323330;61;22367;-24
2021/05/17 04:34:48;;;;;;;10.63;9.52;;;22.90;53.80;;;;;;4319169;61;21071;-25
2021/05/17 04:39:49;;;;;;;10.98;9.38;;;23.00;53.90;;;;;;4302133;65;21657;-22
2021/05/17 04:44:49;;;;;;;10.55;9.43;;;23.00;53.90;;;;;;4321100;61;21076;-27
2021/05/17 04:49:51;;;;;;;12.93;9.15;;;23.00;54.00;;;;;;4302949;65;21544;-24
2021/05/17 04:54:52;;;;;;;9.98;8.98;;;23.00;54.00;;;;;;4303282;61;21558;-24
2021/05/17 04:59:52;;;;;;;9.45;8.45;;;22.90;54.10;;;;;;4347790;60;21067;-24
2021/05/17 05:04:53;;;;;;;11.57;9.55;;;22.90;54.00;;;;;;4374807;61;21124;-24
2021/05/17 05:09:55;;;;;;;9.25;8.32;;;22.90;54.00;;;;;;4312841;60;21120;-23
2021/05/17 05:14:56;;;;;;;10.02;8.70;;;22.90;54.10;;;;;;4334349;61;21629;-24
2021/05/17 05:19:57;;;;;;;9.80;8.57;;;22.90;54.10;;;;;;4302613;65;21103;-25
2021/05/17 05:24:58;;;;;;;9.95;8.73;;;22.90;54.10;;;;;;4329271;60;21070;-23
2021/05/17 05:36:52;;;;;;;10.52;8.82;;;22.90;54.20;;;;;;4320380;61;21115;-24
2021/05/17 05:41:53;;;;;;;10.18;8.35;;;22.90;54.20;;;;;;4345555;60;21729;-24
2021/05/17 05:46:54;;;;;;;9.93;8.77;;;22.90;54.10;;;;;;4317481;60;21136;-25
2021/05/17 05:51:55;;;;;;;11.18;8.68;;;22.90;54.20;;;;;;4325014;61;21071;-27
2021/05/17 05:56:55;;;;;;;9.50;8.43;;;22.90;54.20;;;;;;4365596;61;21534;-24
2021/05/17 06:01:56;;;;;;;12.37;9.05;;;22.90;54.20;;;;;;4318585;61;21386;-25
2021/05/17 06:06:57;;;;;;;9.20;8.30;;;22.90;54.20;;;;;;4311727;61;21105;-34
2021/05/17 06:11:59;;;;;;;10.23;8.85;;;22.90;54.30;;;;;;4306047;61;21708;-24
2021/05/17 06:17:01;;;;;;;9.60;8.45;;;22.90;54.30;;;;;;4328759;60;21072;-24
2021/05/17 06:22:02;;;;;;;9.85;8.23;;;22.90;54.30;;;;;;4311815;61;21052;-20
2021/05/17 06:27:03;;;;;;;9.77;8.40;;;22.90;54.30;;;;;;4320503;60;21252;-26
2021/05/17 06:32:06;;;;;;;8.85;7.82;;;22.90;54.30;;;;;;4319228;61;21119;-26
2021/05/17 06:37:07;;;;;;;8.88;7.97;;;22.90;54.30;;;;;;4318973;60;21067;-20
2021/05/17 06:42:10;;;;;;;9.13;8.18;;;22.90;54.30;;;;;;4302426;64;21100;-26
2021/05/17 06:47:12;;;;;;;9.65;8.52;;;22.90;54.30;;;;;;4303105;65;21614;-27
2021/05/17 06:52:15;;;;;;;9.60;8.65;;;22.90;54.30;;;;;;4304898;61;21589;-26
2021/05/17 06:57:21;;;;;;;9.45;8.45;;;22.90;54.40;;;;;;4355393;60;21545;-26
2021/05/17 07:02:24;;;;;;;9.55;8.48;;;22.90;54.40;;;;;;4304886;61;21213;-27
2021/05/17 07:15:05;;;;;;;30.25;17.77;;;22.90;54.40;;;;;;4332613;61;21091;-19
2021/05/17 07:20:07;;;;;;;36.95;26.12;;;22.90;56.60;;;;;;4311779;61;21128;-24
2021/05/17 07:25:09;;;;;;;34.97;24.02;;;22.90;57.40;;;;;;4303661;61;21549;-25
2021/05/17 07:30:12;;;;;;;31.05;23.05;;;22.80;58.00;;;;;;4304499;61;21111;-24
2021/05/17 07:35:12;;;;;;;31.58;23.92;;;22.90;58.00;;;;;;4320730;60;21146;-26
2021/05/17 07:40:13;;;;;;;35.30;25.65;;;22.90;58.10;;;;;;4319554;61;21134;-25
2021/05/17 07:45:14;;;;;;;29.73;23.15;;;22.90;58.30;;;;;;4319938;61;21546;-25
2021/05/17 07:50:16;;;;;;;34.60;25.20;;;22.90;58.40;;;;;;4319207;61;21087;-24
2021/05/17 07:55:24;;;;;;;39.97;27.80;;;22.90;58.00;;;;;;4317771;61;21155;-21
2021/05/17 08:00:24;;;;;;;50.45;31.33;;;22.90;58.20;;;;;;4301533;65;22792;-25
2021/05/17 08:05:25;;;;;;;35.38;21.98;;;22.90;58.30;;;;;;4344079;61;21108;-25
2021/05/17 08:10:26;;;;;;;33.25;22.13;;;22.90;58.20;;;;;;4312465;61;21502;-27
2021/05/17 08:15:28;;;;;;;33.00;22.37;;;23.00;58.20;;;;;;4308207;61;21672;-26
2021/05/17 08:20:29;;;;;;;39.35;22.62;;;23.00;58.00;;;;;;4306535;61;21606;-24
2021/05/17 08:25:30;;;;;;;25.25;18.87;;;23.00;58.50;;;;;;4317743;61;21628;-23
2021/05/17 08:30:38;;;;;;;27.67;19.65;;;23.00;58.40;;;;;;4308012;61;21116;-25
2021/05/17 08:35:41;;;;;;;30.15;21.17;;;23.00;58.40;;;;;;4302418;65;21745;-20
2021/05/17 08:40:44;;;;;;;29.40;21.08;;;23.00;58.50;;;;;;4316219;61;21210;-26
2021/05/17 08:45:45;;;;;;;28.08;21.42;;;23.10;58.50;;;;;;4308316;61;21565;-25
2021/05/17 08:50:46;;;;;;;28.15;21.70;;;23.10;58.50;;;;;;4314441;61;21548;-26
2021/05/17 08:55:47;;;;;;;31.42;21.42;;;23.20;58.50;;;;;;4308987;61;21098;-24
2021/05/17 09:00:48;;;;;;;27.65;22.15;;;23.20;58.60;;;;;;4335129;60;21609;-23
2021/05/17 09:05:48;;;;;;;29.02;21.30;;;23.20;58.60;;;;;;4320511;61;21161;-26
2021/05/17 09:10:49;;;;;;;25.60;21.27;;;23.30;58.70;;;;;;4304560;61;21618;-28
2021/05/17 09:15:52;;;;;;;25.37;20.62;;;23.30;58.70;;;;;;4302009;65;21111;-24
2021/05/17 09:20:58;;;;;;;27.10;20.83;;;23.30;59.00;;;;;;4302577;65;21099;-30
2021/05/17 09:26:26;;;;;;;31.10;21.67;;;23.40;59.20;;;;;;4306768;61;21664;-23
2021/05/17 09:31:28;;;;;;;27.23;20.80;;;23.40;59.30;;;;;;4304790;61;22252;-25
2021/05/17 09:36:41;;;;;;;29.17;22.80;;;23.40;59.60;;;;;;4311455;61;21125;-26
2021/05/17 09:41:46;;;;;;;28.15;20.92;;;23.50;59.60;;;;;;4307145;61;21166;-24
2021/05/17 09:47:09;;;;;;;28.55;21.60;;;23.50;59.60;;;;;;4355933;60;21156;-26
2021/05/17 09:52:16;;;;;;;27.75;22.45;;;23.60;59.80;;;;;;4303143;61;21621;-26
2021/05/17 09:57:57;;;;;;;28.25;23.15;;;23.60;60.60;;;;;;4303052;65;21206;-24
2021/05/17 10:03:00;;;;;;;31.08;22.60;;;23.60;60.20;;;;;;4325909;61;21075;-25
2021/05/17 10:08:07;;;;;;;28.62;22.33;;;23.70;60.20;;;;;;4312197;61;21582;-23
2021/05/17 10:13:08;;;;;;;25.98;22.23;;;23.70;60.40;;;;;;4321004;60;22066;-24
2021/05/17 10:18:13;;;;;;;26.45;22.27;;;23.70;60.50;;;;;;4306949;61;21107;-26
2021/05/17 10:23:14;;;;;;;27.13;21.60;;;23.70;60.60;;;;;;4312063;61;21116;-23
2021/05/17 10:28:34;;;;;;;28.33;23.50;;;23.70;60.70;;;;;;4324838;60;21076;-24
2021/05/17 10:33:35;;;;;;;26.55;21.20;;;23.80;60.90;;;;;;4307152;61;21577;-26
2021/05/17 10:38:46;;;;;;;26.92;21.12;;;23.80;60.90;;;;;;4302442;65;21148;-25
2021/05/17 10:50:39;;;;;;;27.40;21.92;;;23.80;61.10;;;;;;4307415;61;21095;-24
2021/05/17 10:55:47;;;;;;;27.70;22.10;;;23.90;61.30;;;;;;4337159;61;21100;-20
2021/05/17 11:00:49;;;;;;;26.55;21.58;;;23.80;61.40;;;;;;4313140;61;21139;-22
2021/05/17 11:05:57;;;;;;;41.50;31.92;;;23.90;61.40;;;;;;4339741;61;21047;-25
2021/05/17 11:10:59;;;;;;;44.22;34.38;;;23.90;61.20;;;;;;4310338;61;21614;-26
2021/05/17 11:16:08;;;;;;;43.05;33.97;;;23.80;61.00;;;;;;4316761;61;22122;-25
2021/05/17 11:21:21;;;;;;;44.05;33.90;;;23.80;60.90;;;;;;4302727;65;21657;-25
2021/05/17 11:26:23;;;;;;;45.58;32.80;;;23.80;60.90;;;;;;4312307;61;21082;-26
2021/05/17 11:31:40;;;;;;;44.55;33.72;;;23.80;60.80;;;;;;4321609;61;21626;-25
2021/05/17 11:36:44;;;;;;;;;;;23.70;60.60;;;;;;4313990;61;21644;-24
2021/05/17 11:42:04;;;;;;;54.85;44.15;;;23.70;60.60;;;;;;4309917;61;20687;-22
2021/05/17 11:48:07;;;;;;;57.78;41.80;;;23.70;60.60;;;;;;4325266;61;21047;-24
2021/05/17 11:53:17;;;;;;;59.78;43.03;;;23.60;59.70;;;;;;4302935;61;21586;-24
2021/05/17 11:58:26;;;;;;;57.62;44.45;;;23.60;59.10;;;;;;4333727;61;21093;-28
2021/05/17 12:03:27;;;;;;;45.70;33.78;;;23.50;59.30;;;;;;4302920;61;21146;-25
2021/05/17 12:08:28;;;;;;;41.60;32.38;;;23.40;59.80;;;;;;4302419;65;21059;-25
2021/05/17 12:13:29;;;;;;;45.42;34.28;;;23.40;59.70;;;;;;4303929;61;21578;-22
2021/05/17 12:18:36;;;;;;;40.75;31.30;;;23.40;60.50;;;;;;4304266;61;21142;-25
2021/05/17 12:23:49;;;;;;;39.85;28.08;;;23.40;60.60;;;;;;4330531;60;21103;-25
2021/05/17 12:28:58;;;;;;;39.35;29.05;;;23.40;60.60;;;;;;4314215;61;21140;-21
2021/05/17 12:34:00;;;;;;;33.00;25.37;;;23.50;60.50;;;;;;4335633;61;21633;-21
2021/05/17 12:39:03;;;;;;;31.73;25.65;;;23.50;60.50;;;;;;4303987;61;21119;-25
2021/05/17 12:44:26;;;;;;;33.00;25.37;;;23.50;60.40;;;;;;4304172;61;21056;-26
2021/05/17 12:49:46;;;;;;;31.08;25.17;;;23.60;60.50;;;;;;4308238;60;21105;-25
2021/05/17 12:55:28;;;;;;;31.75;25.27;;;23.60;60.40;;;;;;4312568;61;22157;-25
2021/05/17 13:00:44;;;;;;;30.08;24.77;;;23.60;60.40;;;;;;4351490;61;21071;-26
2021/05/17 13:06:32;;;;;;;32.90;24.07;;;23.60;60.30;;;;;;4309207;60;21047;-26
2021/05/17 13:11:37;;;;;;;36.80;29.77;;;23.60;60.20;;;;;;4307827;61;21071;-26
2021/05/17 13:17:02;;;;;;;38.25;29.05;;;23.60;60.20;;;;;;4308942;61;21569;-23
2021/05/17 13:31:02;;;;;;;36.53;30.25;;;23.60;60.10;;;;;;4303053;61;21167;-21
2021/05/17 13:36:08;;;;;;;36.78;29.52;;;23.60;60.20;;;;;;4302459;61;21554;-24
2021/05/17 13:41:10;;;;;;;36.67;29.80;;;23.70;60.30;;;;;;4318699;61;21152;-23
2021/05/17 13:46:11;;;;;;;38.92;29.48;;;23.70;60.20;;;;;;4304161;61;21066;-23
2021/05/17 13:51:12;;;;;;;35.53;28.87;;;23.70;60.30;;;;;;4325402;61;21059;-24
2021/05/17 13:56:14;;;;;;;35.28;30.37;;;23.70;60.30;;;;;;4318513;61;21064;-26
2021/05/17 14:01:15;;;;;;;38.63;30.65;;;23.70;60.30;;;;;;4302792;65;21545;-21
2021/05/17 14:06:16;;;;;;;36.35;29.08;;;23.70;60.30;;;;;;4304103;61;21503;-25
2021/05/17 14:11:17;;;;;;;36.42;29.23;;;23.70;60.40;;;;;;4328526;61;21059;-28
2021/05/17 14:16:18;;;;;;;32.97;29.00;;;23.70;60.40;;;;;;4301559;65;21067;-25
2021/05/17 14:21:19;;;;;;;36.08;28.55;;;23.70;60.40;;;;;;4324927;61;21614;-23
2021/05/17 14:26:20;;;;;;;33.38;28.40;;;23.70;60.40;;;;;;4305256;61;21100;-26
2021/05/17 14:31:21;;;;;;;36.67;29.42;;;23.70;60.50;;;;;;4332728;60;21070;-25
2021/05/17 14:36:21;;;;;;;34.50;29.27;;;23.80;60.50;;;;;;4301906;65;21087;-22
2021/05/17 14:41:23;;;;;;;34.17;28.42;;;23.70;60.50;;;;;;4323373;61;21110;-26
2021/05/17 14:46:24;;;;;;;35.90;29.90;;;23.80;60.50;;;;;;4305208;61;21514;-23
2021/05/17 14:51:25;;;;;;;35.13;29.00;;;23.80;60.50;;;;;;4317475;61;21075;-28
2021/05/17 14:56:25;;;;;;;33.28;28.60;;;23.80;60.60;;;;;;4305509;61;21130;-24
2021/05/17 15:01:26;;;;;;;36.10;29.33;;;23.80;60.60;;;;;;4331205;61;21087;-26
2021/05/17 15:06:28;;;;;;;37.33;28.83;;;23.80;60.60;;;;;;4320302;61;21585;-27
2021/05/17 15:11:29;;;;;;;33.53;28.60;;;23.70;60.70;;;;;;4335758;60;21586;-26
2021/05/17 15:16:29;;;;;;;36.45;30.25;;;23.70;60.70;;;;;;4302593;65;21128;-27
2021/05/17 15:21:30;;;;;;;34.88;27.62;;;23.70;60.70;;;;;;4307891;61;21107;-28
2021/05/17 15:26:32;;;;;;;34.75;27.87;;;23.60;60.60;;;;;;4299981;65;21614;-25
2021/05/17 15:31:34;;;;;;;37.22;29.98;;;23.60;60.70;;;;;;4310854;61;21497;-26
2021/05/17 15:36:35;;;;;;;37.60;29.77;;;23.60;60.70;;;;;;4320057;61;21565;-23
2021/05/17 15:41:36;;;;;;;34.45;28.65;;;23.60;60.60;;;;;;4303876;61;21131;-25
2021/05/17 15:46:37;;;;;;;36.85;30.08;;;23.50;60.60;;;;;;4305814;61;21111;-24
2021/05/17 15:51:37;;;;;;;36.30;29.67;;;23.50;60.50;;;;;;4302432;65;21112;-27
2021/05/17 15:56:39;;;;;;;36.83;30.27;;;23.50;60.50;;;;;;4317265;61;21111;-24
2021/05/17 16:01:42;;;;;;;37.42;30.17;;;23.40;60.40;;;;;;4307358;60;21072;-22
2021/05/17 16:06:43;;;;;;;36.72;29.40;;;23.40;60.30;;;;;;4303899;61;21155;-24
2021/05/17 16:11:48;;;;;;;34.70;28.10;;;23.40;60.40;;;;;;4316642;61;21097;-28
2021/05/17 16:22:11;;;;;;;34.72;28.05;;;23.40;60.30;;;;;;4302629;61;21179;-27
2021/05/17 16:27:12;;;;;;;38.72;29.40;;;23.40;60.20;;;;;;4303297;65;21609;-25
2021/05/17 16:32:14;;;;;;;35.25;28.15;;;23.40;60.80;;;;;;4302957;64;21119;-27
2021/05/17 16:37:16;;;;;;;35.33;28.33;;;23.40;60.10;;;;;;4320388;61;21686;-24
2021/05/17 16:42:17;;;;;;;33.75;28.10;;;23.40;60.00;;;;;;4315001;61;21603;-26
2021/05/17 16:47:18;;;;;;;38.22;30.35;;;23.40;60.00;;;;;;4302656;61;21111;-20
2021/05/17 16:52:19;;;;;;;35.50;28.02;;;23.30;59.90;;;;;;4308483;61;21115;-27
2021/05/17 16:57:20;;;;;;;33.60;27.23;;;23.30;59.80;;;;;;4312790;61;21121;-26
2021/05/17 17:02:20;;;;;;;37.38;30.65;;;23.30;59.80;;;;;;4303318;65;21043;-25
2021/05/17 17:07:21;;;;;;;36.95;28.52;;;23.30;59.70;;;;;;4322750;61;21055;-28
2021/05/17 17:12:22;;;;;;;38.63;28.83;;;23.30;59.60;;;;;;4303388;65;21502;-21
2021/05/17 17:17:23;;;;;;;36.60;29.17;;;23.30;59.60;;;;;;4305255;61;21063;-26
2021/05/17 17:22:24;;;;;;;31.75;27.17;;;23.30;59.50;;;;;;4305837;61;21602;-25
2021/05/17 17:27:25;;;;;;;34.50;28.83;;;23.30;59.40;;;;;;4315240;61;21076;-24
2021/05/17 17:32:25;;;;;;;32.97;27.77;;;23.30;60.00;;;;;;4318523;61;21155;-21
2021/05/17 17:37:26;;;;;;;34.10;28.05;;;23.30;59.30;;;;;;4310849;61;21120;-24
2021/05/17 17:42:27;;;;;;;34.03;27.13;;;23.30;59.20;;;;;;4321722;61;21091;-26
2021/05/17 17:47:28;;;;;;;34.70;28.17;;;23.30;59.20;;;;;;4302480;65;21665;-26
2021/05/17 17:52:28;;;;;;;31.30;25.50;;;23.30;59.10;;;;;;4307876;61;21115;-21
2021/05/17 17:57:29;;;;;;;32.55;27.83;;;23.30;59.00;;;;;;4334273;60;21992;-27
2021/05/17 18:02:30;;;;;;;32.03;26.83;;;23.30;59.00;;;;;;4313008;61;22293;-24
2021/05/17 18:07:31;;;;;;;30.60;25.95;;;23.20;58.80;;;;;;4303083;65;21108;-26
2021/05/17 18:12:37;;;;;;;31.80;25.83;;;23.30;58.80;;;;;;4322403;61;21180;-22
2021/05/17 18:17:40;;;;;;;32.38;26.70;;;23.30;58.80;;;;;;4312897;61;21589;-28
2021/05/17 18:22:41;;;;;;;34.92;25.95;;;23.20;58.70;;;;;;4324761;61;21145;-26
2021/05/17 18:27:41;;;;;;;30.55;25.65;;;23.20;58.70;;;;;;4316632;61;21071;-23
2021/05/17 18:32:52;;;;;;;31.60;26.33;;;23.20;58.60;;;;;;4319596;61;21090;-25
2021/05/17 18:37:53;;;;;;;32.92;27.20;;;23.20;58.50;;;;;;4329256;61;21708;-26
2021/05/17 18:43:03;;;;;;;30.48;25.23;;;23.20;58.50;;;;;;4303496;65;21095;-25
2021/05/17 18:48:05;;;;;;;32.15;26.77;;;23.20;58.50;;;;;;4309114;61;21629;-26
2021/05/17 18:53:06;;;;;;;32.30;26.25;;;23.20;58.40;;;;;;4338212;61;21090;-25
2021/05/17 18:58:07;;;;;;;29.45;24.33;;;23.20;58.30;;;;;;4328143;61;21090;-25
2021/05/17 19:03:08;;;;;;;31.80;24.73;;;23.20;58.30;;;;;;4303960;61;21048;-25
2021/05/17 19:08:08;;;;;;;31.60;25.58;;;23.20;58.30;;;;;;4308436;61;21099;-24
2021/05/17 19:13:10;;;;;;;31.90;26.80;;;23.20;58.20;;;;;;4310110;61;21120;-26
2021/05/17 19:18:13;;;;;;;33.13;27.42;;;23.20;58.10;;;;;;4302639;65;21063;-26
2021/05/17 19:23:14;;;;;;;31.92;26.70;;;23.20;58.10;;;;;;4336154;61;21602;-26
2021/05/17 19:28:16;;;;;;;31.23;26.27;;;23.20;58.10;;;;;;4336009;60;21113;-24
2021/05/17 19:33:20;;;;;;;30.70;26.67;;;23.10;58.00;;;;;;4340696;61;21071;-25
2021/05/17 19:38:20;;;;;;;32.63;26.37;;;23.10;58.00;;;;;;4320572;61;21148;-24
2021/05/17 19:43:21;;;;;;;29.23;25.83;;;23.10;57.90;;;;;;4310539;61;21141;-23
2021/05/17 19:48:23;;;;;;;31.45;25.98;;;23.20;57.90;;;;;;4318512;61;21116;-27
2021/05/17 19:53:24;;;;;;;33.22;26.37;;;23.10;57.80;;;;;;4317213;61;21159;-25
2021/05/17 19:58:26;;;;;;;31.20;26.12;;;23.20;57.80;;;;;;4317729;61;21086;-24
2021/05/17 20:03:34;;;;;;;28.83;25.62;;;23.20;57.80;;;;;;4322108;61;21152;-27
2021/05/17 20:08:34;;;;;;;28.27;23.90;;;23.10;57.80;;;;;;4327831;60;21538;-26
2021/05/17 20:13:35;;;;;;;30.75;25.95;;;23.10;57.70;;;;;;4320195;61;21067;-25
2021/05/17 20:18:36;;;;;;;28.12;24.90;;;23.10;57.60;;;;;;4339700;61;21131;-24
2021/05/17 20:23:37;;;;;;;29.45;24.65;;;23.10;57.60;;;;;;4326815;61;21204;-24
2021/05/17 20:28:39;;;;;;;28.02;24.85;;;23.10;57.50;;;;;;4322455;61;21064;-27
2021/05/17 20:33:50;;;;;;;27.85;24.50;;;23.10;57.50;;;;;;4309269;61;21557;-27
2021/05/17 20:38:51;;;;;;;28.35;23.60;;;23.10;57.50;;;;;;4311791;61;21617;-24
2021/05/17 20:43:55;;;;;;;25.58;22.80;;;23.10;57.40;;;;;;4322185;61;21132;-25
2021/05/17 20:48:55;;;;;;;27.90;24.10;;;23.10;57.40;;;;;;4303507;65;21521;-26
2021/05/17 20:53:57;;;;;;;28.48;24.08;;;23.10;57.30;;;;;;4302624;65;21059;-25
2021/05/17 20:58:59;;;;;;;25.92;22.67;;;23.10;57.30;;;;;;4312894;61;21691;-27
2021/05/17 21:04:01;;;;;;;27.15;22.65;;;23.10;57.30;;;;;;4303248;65;21079;-26
2021/05/17 21:09:08;;;;;;;26.52;22.73;;;23.10;57.30;;;;;;4309695;61;21051;-26
2021/05/17 21:14:12;;;;;;;26.25;22.15;;;23.10;57.30;;;;;;4303475;61;21140;-27
2021/05/17 21:19:14;;;;;;;25.73;21.40;;;23.10;57.30;;;;;;4323676;61;21138;-26
2021/05/17 21:24:15;;;;;;;24.35;21.67;;;23.10;57.20;;;;;;4313872;61;21122;-27
2021/05/17 21:29:16;;;;;;;26.83;22.90;;;23.10;57.20;;;;;;4318452;61;21130;-24
2021/05/17 21:34:17;;;;;;;26.73;23.23;;;23.10;57.20;;;;;;4341888;61;21541;-26
2021/05/17 21:39:19;;;;;;;26.80;22.98;;;23.10;57.20;;;;;;4302402;65;21565;-26
2021/05/17 21:44:20;;;;;;;24.95;22.25;;;23.10;57.20;;;;;;4314980;61;21623;-26
2021/05/17 21:49:21;;;;;;;24.63;21.30;;;23.10;57.10;;;;;;4305975;61;21071;-27
2021/05/17 21:54:21;;;;;;;24.58;21.98;;;23.10;57.10;;;;;;4316942;61;21072;-24
2021/05/17 21:59:22;;;;;;;23.60;20.35;;;23.10;57.10;;;;;;4319720;61;21071;-24
2021/05/17 22:04:23;;;;;;;24.90;20.98;;;23.10;57.10;;;;;;4340160;60;21055;-26
2021/05/17 22:14:44;;;;;;;22.35;19.95;;;23.10;57.00;;;;;;4302282;61;21195;-27
2021/05/17 22:19:44;;;;;;;22.08;19.67;;;23.00;56.90;;;;;;4309577;61;21103;-25
2021/05/17 22:24:46;;;;;;;22.20;19.80;;;23.00;56.90;;;;;;4332781;60;21103;-26
2021/05/17 22:29:47;;;;;;;23.92;20.55;;;23.10;57.00;;;;;;4336957;60;21953;-26
2021/05/17 22:34:47;;;;;;;24.08;20.37;;;23.10;56.90;;;;;;4338739;61;21103;-26
2021/05/17 22:39:48;;;;;;;22.37;19.62;;;23.00;56.90;;;;;;4316156;61;21126;-27
2021/05/17 22:44:49;;;;;;;20.95;18.42;;;23.00;56.80;;;;;;4326047;61;21120;-27
2021/05/17 22:49:50;;;;;;;21.55;18.80;;;23.10;56.90;;;;;;4318786;61;21128;-25
2021/05/17 22:54:51;;;;;;;21.65;18.92;;;23.10;56.80;;;;;;4308172;61;21083;-25
2021/05/17 22:59:52;;;;;;;21.42;19.12;;;23.10;56.80;;;;;;4306207;61;21636;-26
2021/05/17 23:04:53;;;;;;;22.75;19.80;;;23.00;56.80;;;;;;4310999;61;21059;-24
2021/05/17 23:09:54;;;;;;;21.85;19.50;;;23.00;56.70;;;;;;4303527;61;21052;-27
2021/05/17 23:14:54;;;;;;;22.83;20.23;;;23.00;56.70;;;;;;4306459;61;21120;-26
2021/05/17 23:19:58;;;;;;;20.12;17.95;;;23.00;56.70;;;;;;4327343;61;21163;-26
2021/05/17 23:30:19;;;;;;;19.27;17.17;;;23.00;56.70;;;;;;4322704;61;21132;-27
2021/05/17 23:35:20;;;;;;;19.65;16.62;;;23.00;56.60;;;;;;4333414;60;21059;-24
2021/05/17 23:40:21;;;;;;;19.58;17.45;;;23.00;56.60;;;;;;4305645;61;21584;-27
2021/05/17 23:45:24;;;;;;;20.20;16.83;;;23.00;56.60;;;;;;4312437;61;21183;-27
2021/05/17 23:50:25;;;;;;;19.67;17.15;;;23.00;56.50;;;;;;4321126;61;21151;-28
2021/05/17 23:55:27;;;;;;;20.20;18.08;;;23.00;56.50;;;;;;4337632;61;21200;-26
